Time;durP1;ratioP1;P1;durP2;ratioP2;P2;SDS_P1;SDS_P2;PMS_P1;PMS_P2;Temp;Humidity;BMP_temperature;BMP_pressure;BME280_temperature;BME280_humidity;BME280_pressure;Samples;Min_cycle;Max_cycle;Signal;HPM_P1;HPM_P2
2024/03/05 00:01:55;;;;;;;0.30;0.20;;;;;;;9.87;96.29;99878.97;5092126;28;20449;-46
2024/03/05 00:04:22;;;;;;;0.30;0.20;;;;;;;9.66;96.92;99878.75;5091592;28;21072;-47
2024/03/05 00:06:48;;;;;;;0.30;0.20;;;;;;;9.63;97.20;99877.97;5093491;28;20845;-46
2024/03/05 00:09:15;;;;;;;0.30;0.20;;;;;;;9.70;96.77;99884.81;5095541;28;20444;-47
2024/03/05 00:11:41;;;;;;;0.30;0.20;;;;;;;9.62;96.96;99882.41;5095592;28;20452;-47
2024/03/05 00:14:08;;;;;;;0.30;0.20;;;;;;;9.61;96.97;99888.63;5095529;28;20498;-46
2024/03/05 00:16:34;;;;;;;0.30;0.20;;;;;;;9.52;97.59;99883.59;5095640;28;20449;-47
2024/03/05 00:19:01;;;;;;;0.30;0.20;;;;;;;9.47;97.17;99888.19;5095499;28;20520;-46
2024/03/05 00:21:27;;;;;;;0.30;0.20;;;;;;;9.41;97.84;99883.94;5095546;28;20452;-45
2024/03/05 00:23:54;;;;;;;0.30;0.20;;;;;;;9.49;97.67;99892.53;5094835;28;20488;-46
2024/03/05 00:26:21;;;;;;;0.30;0.20;;;;;;;9.41;97.63;99898.97;5095193;28;20959;-47
2024/03/05 00:28:48;;;;;;;0.30;0.20;;;;;;;9.44;98.17;99893.56;5095398;28;20468;-47
2024/03/05 00:31:14;;;;;;;0.30;0.20;;;;;;;9.37;98.38;99886.72;5095140;28;20468;-46
2024/03/05 00:33:41;;;;;;;0.30;0.20;;;;;;;9.40;98.45;99889.28;5095318;28;20445;-46
2024/03/05 00:36:07;;;;;;;0.30;0.20;;;;;;;9.26;98.81;99892.34;5069480;28;21014;-46
2024/03/05 00:38:34;;;;;;;0.30;0.20;;;;;;;9.38;99.16;99885.81;5067565;28;20474;-46
2024/03/05 00:41:01;;;;;;;0.30;0.20;;;;;;;9.40;98.87;99887.50;5087719;28;20461;-46
2024/03/05 00:43:28;;;;;;;0.30;0.20;;;;;;;9.41;98.69;99883.94;5086241;28;20980;-45
2024/03/05 00:45:54;;;;;;;0.30;0.20;;;;;;;9.29;98.99;99881.63;5095104;28;20530;-46
2024/03/05 00:48:21;;;;;;;0.30;0.20;;;;;;;9.27;99.27;99895.88;5067373;28;20548;-47
2024/03/05 00:50:47;;;;;;;0.30;0.20;;;;;;;9.29;99.52;99896.69;5094888;28;20980;-47
2024/03/05 00:53:14;;;;;;;0.30;0.20;;;;;;;9.25;99.60;99895.91;5078379;28;20954;-47
2024/03/05 00:55:40;;;;;;;0.30;0.20;;;;;;;9.26;99.64;99900.31;5094712;28;20536;-48
2024/03/05 00:58:07;;;;;;;0.30;0.20;;;;;;;9.30;99.60;99895.78;5094661;28;20503;-47
2024/03/05 01:00:33;;;;;;;0.30;0.20;;;;;;;9.34;99.44;99900.09;5094900;28;20537;-46
2024/03/05 01:03:01;;;;;;;0.30;0.20;;;;;;;9.25;99.28;99897.69;5094567;28;20473;-47
2024/03/05 01:05:27;;;;;;;0.30;0.20;;;;;;;9.19;99.53;99894.31;5094613;28;20485;-46
2024/03/05 01:07:54;;;;;;;0.30;0.20;;;;;;;9.23;99.70;99900.41;5081011;28;20474;-47
2024/03/05 01:10:20;;;;;;;0.30;0.20;;;;;;;9.18;99.40;99897.00;5081163;28;20523;-46
2024/03/05 01:12:47;;;;;;;0.30;0.20;;;;;;;9.23;99.16;99899.53;5067991;28;20453;-46
2024/03/05 01:15:13;;;;;;;0.30;0.20;;;;;;;9.23;99.32;99897.75;5094400;28;20445;-48
2024/03/05 01:17:44;;;;;;;0.30;0.20;;;;;;;9.27;99.41;99894.09;5093822;28;20545;-47
2024/03/05 01:20:15;;;;;;;0.30;0.20;;;;;;;9.39;99.40;99888.41;5094195;28;20445;-46
2024/03/05 01:22:42;;;;;;;0.30;0.20;;;;;;;9.34;98.53;99895.66;5090639;28;20448;-47
2024/03/05 01:25:10;;;;;;;0.30;0.20;;;;;;;9.31;98.69;99894.84;5093875;28;21005;-46
2024/03/05 01:27:38;;;;;;;0.30;0.20;;;;;;;9.24;98.99;99886.22;5094241;28;20515;-46
2024/03/05 01:30:11;;;;;;;0.30;0.20;;;;;;;9.30;98.71;99888.69;5094095;28;20562;-46
2024/03/05 01:32:38;;;;;;;0.30;0.20;;;;;;;9.55;98.16;99883.50;5094151;28;20441;-47
2024/03/05 01:35:10;;;;;;;0.30;0.20;;;;;;;9.62;97.39;99878.88;5085587;28;20453;-47
2024/03/05 01:37:40;;;;;;;0.30;0.20;;;;;;;9.56;97.67;99892.34;5060913;28;21049;-46
2024/03/05 01:40:08;;;;;;;0.30;0.20;;;;;;;9.43;97.74;99875.91;5077036;28;20455;-47
2024/03/05 01:42:35;;;;;;;0.30;0.20;;;;;;;9.32;98.65;99878.03;5086600;28;20548;-48
2024/03/05 01:45:02;;;;;;;0.30;0.20;;;;;;;9.47;98.65;99878.44;5092988;28;20499;-47
2024/03/05 01:47:32;;;;;;;0.30;0.20;;;;;;;9.33;98.95;99879.78;5093668;28;20465;-48
2024/03/05 01:49:59;;;;;;;0.30;0.20;;;;;;;9.27;98.55;99869.34;5080904;28;20940;-47
2024/03/05 01:52:27;;;;;;;0.30;0.20;;;;;;;8.96;99.66;99869.38;5064785;28;20447;-47
2024/03/05 01:54:59;;;;;;;0.30;0.20;;;;;;;8.89;100.00;99876.63;5067436;28;20455;-46
2024/03/05 01:57:26;;;;;;;0.30;0.20;;;;;;;9.02;99.74;99870.06;5093417;28;20469;-47
2024/03/05 01:59:53;;;;;;;0.30;0.20;;;;;;;8.85;100.00;99867.03;5093622;28;20535;-46
2024/03/05 02:02:20;;;;;;;0.30;0.20;;;;;;;9.09;100.00;99858.38;5093286;28;20457;-47
2024/03/05 02:04:47;;;;;;;0.30;0.20;;;;;;;9.05;100.00;99854.09;5093503;28;20519;-47
2024/03/05 02:07:15;;;;;;;0.30;0.20;;;;;;;8.97;100.00;99849.91;5093309;28;20464;-46
2024/03/05 02:09:42;;;;;;;0.30;0.20;;;;;;;8.78;100.00;99844.28;5093412;28;20445;-47
2024/03/05 02:12:08;;;;;;;0.30;0.20;;;;;;;9.03;100.00;99844.41;5093202;28;20449;-48
2024/03/05 02:14:35;;;;;;;0.30;0.20;;;;;;;8.82;100.00;99841.50;5093071;28;20900;-46
2024/03/05 02:17:01;;;;;;;0.30;0.20;;;;;;;9.00;100.00;99848.03;5092889;28;20885;-46
2024/03/05 02:19:31;;;;;;;0.30;0.20;;;;;;;9.07;100.00;99846.97;5093422;28;20477;-47
2024/03/05 02:22:06;;;;;;;0.30;0.20;;;;;;;9.02;100.00;99864.75;5090254;28;20453;-48
2024/03/05 02:24:33;;;;;;;0.30;0.20;;;;;;;9.06;100.00;99874.38;5093044;28;21075;-47
2024/03/05 02:27:01;;;;;;;0.30;0.20;;;;;;;9.05;100.00;99864.69;5093295;28;20469;-48
2024/03/05 02:29:30;;;;;;;0.30;0.20;;;;;;;9.11;100.00;99868.94;5092334;28;20456;-47
2024/03/05 02:31:57;;;;;;;0.30;0.20;;;;;;;9.16;99.88;99867.88;5092644;28;20983;-46
2024/03/05 02:34:24;;;;;;;0.30;0.20;;;;;;;9.16;99.65;99869.66;5092990;28;20420;-46
2024/03/05 02:36:50;;;;;;;0.30;0.20;;;;;;;9.14;99.73;99874.16;5064630;28;20467;-48
2024/03/05 02:39:17;;;;;;;0.30;0.20;;;;;;;9.15;99.54;99871.44;5063503;28;20470;-47
2024/03/05 02:41:44;;;;;;;0.30;0.20;;;;;;;9.34;99.29;99870.91;5089870;28;20437;-48
2024/03/05 02:44:10;;;;;;;0.30;0.20;;;;;;;9.16;98.99;99872.31;5084809;28;20495;-47
2024/03/05 02:46:37;;;;;;;0.30;0.17;;;;;;;9.06;99.43;99874.38;5087093;28;20445;-47
2024/03/05 02:49:04;;;;;;;0.30;0.20;;;;;;;9.16;98.91;99873.19;5092796;28;20545;-47
2024/03/05 02:51:30;;;;;;;0.30;0.20;;;;;;;9.15;99.66;99867.94;5092333;28;20455;-49
2024/03/05 02:53:57;;;;;;;0.30;0.20;;;;;;;8.95;100.00;99871.16;5075710;28;20821;-47
2024/03/05 02:56:25;;;;;;;0.30;0.20;;;;;;;9.02;99.93;99870.06;5091401;28;20453;-46
2024/03/05 02:58:52;;;;;;;0.33;0.20;;;;;;;8.90;100.00;99873.94;5092435;28;20457;-46
2024/03/05 03:01:18;;;;;;;0.30;0.20;;;;;;;8.88;100.00;99869.59;5092581;28;20444;-48
2024/03/05 03:03:45;;;;;;;0.30;0.20;;;;;;;8.78;100.00;99869.00;5092514;28;20445;-48
2024/03/05 03:06:16;;;;;;;0.30;0.20;;;;;;;8.81;100.00;99868.91;5092293;28;20477;-47
2024/03/05 03:08:43;;;;;;;0.30;0.20;;;;;;;8.77;100.00;99872.56;5092124;28;20465;-47
2024/03/05 03:11:16;;;;;;;0.30;0.20;;;;;;;8.89;100.00;99876.63;5090124;28;20961;-47
2024/03/05 03:13:46;;;;;;;0.30;0.20;;;;;;;9.03;100.00;99878.88;5087067;28;20507;-47
2024/03/05 03:16:14;;;;;;;0.30;0.20;;;;;;;8.93;100.00;99874.78;5092442;28;20449;-47
2024/03/05 03:18:42;;;;;;;0.30;0.20;;;;;;;8.88;100.00;99878.41;5092030;28;20993;-47
2024/03/05 03:21:09;;;;;;;0.30;0.20;;;;;;;8.92;100.00;99881.88;5092339;28;20471;-46
2024/03/05 03:23:35;;;;;;;0.30;0.20;;;;;;;8.74;100.00;99885.00;5089938;28;20445;-48
2024/03/05 03:26:02;;;;;;;0.30;0.20;;;;;;;8.77;100.00;99883.16;5092389;28;20562;-47
2024/03/05 03:28:29;;;;;;;0.30;0.20;;;;;;;8.62;100.00;99880.91;5091884;28;20999;-47
2024/03/05 03:30:56;;;;;;;0.30;0.20;;;;;;;8.67;100.00;99886.97;5092264;28;20449;-47
2024/03/05 03:33:22;;;;;;;0.30;0.20;;;;;;;8.64;100.00;99884.41;5092177;28;20453;-47
2024/03/05 03:35:49;;;;;;;0.30;0.20;;;;;;;8.42;100.00;99891.19;5071783;28;20443;-47
2024/03/05 03:38:15;;;;;;;0.30;0.20;;;;;;;8.52;100.00;99893.56;5067993;28;20990;-47
2024/03/05 03:40:42;;;;;;;0.30;0.20;;;;;;;8.54;100.00;99896.16;5082599;28;20535;-46
2024/03/05 03:43:14;;;;;;;0.30;0.20;;;;;;;8.57;100.00;99896.06;5087798;28;21001;-47
2024/03/05 03:45:41;;;;;;;0.30;0.20;;;;;;;8.57;100.00;99885.47;5096266;28;20605;-47
2024/03/05 03:48:08;;;;;;;0.30;0.20;;;;;;;8.58;100.00;99898.69;5095868;28;20500;-48
2024/03/05 03:50:37;;;;;;;0.30;0.20;;;;;;;8.54;100.00;99894.38;5095982;28;20933;-47
2024/03/05 03:53:04;;;;;;;0.30;0.20;;;;;;;8.69;100.00;99902.81;5080472;28;20937;-47
2024/03/05 03:55:31;;;;;;;0.30;0.20;;;;;;;8.68;100.00;99901.09;5096089;28;20441;-46
2024/03/05 03:57:57;;;;;;;0.30;0.20;;;;;;;8.74;100.00;99900.91;5084787;28;20908;-50
2024/03/05 04:00:24;;;;;;;0.30;0.20;;;;;;;8.61;100.00;99903.03;5080284;28;20916;-49
2024/03/05 04:02:50;;;;;;;0.30;0.20;;;;;;;8.64;100.00;99899.44;5096065;28;20449;-49
2024/03/05 04:05:17;;;;;;;0.30;0.20;;;;;;;8.72;100.00;99905.38;5095650;28;20488;-49
2024/03/05 04:07:43;;;;;;;0.30;0.20;;;;;;;8.72;100.00;99906.25;5095659;28;20473;-49
2024/03/05 04:10:10;;;;;;;0.30;0.20;;;;;;;8.79;100.00;99899.88;5095846;28;20539;-49
2024/03/05 04:12:39;;;;;;;0.30;0.20;;;;;;;8.76;100.00;99902.59;5089193;28;20888;-49
2024/03/05 04:15:07;;;;;;;0.30;0.20;;;;;;;8.71;100.00;99908.94;5095388;28;20444;-53
2024/03/05 04:17:37;;;;;;;0.30;0.20;;;;;;;8.74;100.00;99907.06;5095273;28;20847;-49
2024/03/05 04:20:05;;;;;;;0.30;0.20;;;;;;;8.81;100.00;99910.44;5095520;28;20441;-49
2024/03/05 04:22:32;;;;;;;0.30;0.20;;;;;;;8.60;100.00;99912.75;5094524;28;20480;-49
2024/03/05 04:24:59;;;;;;;0.30;0.20;;;;;;;8.67;100.00;99915.25;5095107;28;20589;-49
2024/03/05 04:27:30;;;;;;;0.30;0.20;;;;;;;8.56;100.00;99911.09;5095251;28;20528;-49
2024/03/05 04:29:57;;;;;;;0.30;0.20;;;;;;;8.70;100.00;99909.88;5095033;28;20822;-49
2024/03/05 04:32:26;;;;;;;0.30;0.20;;;;;;;8.69;100.00;99913.44;5095388;28;20448;-49
2024/03/05 04:35:00;;;;;;;0.30;0.20;;;;;;;8.82;100.00;99909.53;5089860;28;20498;-49
2024/03/05 04:37:30;;;;;;;0.30;0.20;;;;;;;8.66;100.00;99918.81;5075740;28;21051;-50
2024/03/05 04:39:57;;;;;;;0.30;0.20;;;;;;;8.67;100.00;99925.84;5081075;28;20449;-50
2024/03/05 04:42:25;;;;;;;0.30;0.20;;;;;;;8.65;100.00;99914.44;5089300;28;20457;-50
2024/03/05 04:44:53;;;;;;;0.30;0.20;;;;;;;8.71;100.00;99911.59;5092612;28;20533;-50
2024/03/05 04:47:20;;;;;;;0.30;0.20;;;;;;;8.82;100.00;99909.53;5095182;28;20477;-50
2024/03/05 04:49:47;;;;;;;0.30;0.20;;;;;;;8.87;100.00;99920.88;5095032;28;20488;-50
2024/03/05 04:52:14;;;;;;;0.30;0.20;;;;;;;8.93;100.00;99920.72;5082134;28;20473;-50
2024/03/05 04:54:41;;;;;;;0.30;0.20;;;;;;;9.02;100.00;99917.78;5090452;28;20502;-50
2024/03/05 04:57:08;;;;;;;0.30;0.20;;;;;;;8.89;100.00;99921.69;5094669;28;20473;-49
2024/03/05 04:59:34;;;;;;;0.30;0.20;;;;;;;8.80;100.00;99917.53;5094513;28;20822;-50
2024/03/05 05:02:01;;;;;;;0.30;0.20;;;;;;;8.78;100.00;99927.31;5094823;28;20459;-49
2024/03/05 05:04:28;;;;;;;0.30;0.20;;;;;;;8.70;100.00;99923.97;5083811;28;20500;-49
2024/03/05 05:06:54;;;;;;;0.30;0.20;;;;;;;8.62;100.00;99923.31;5079383;28;20469;-50
2024/03/05 05:09:22;;;;;;;0.30;0.20;;;;;;;8.44;100.00;99919.38;5094399;28;20455;-50
2024/03/05 05:11:49;;;;;;;0.30;0.20;;;;;;;8.51;100.00;99928.03;5094397;28;20453;-50
2024/03/05 05:14:15;;;;;;;0.30;0.20;;;;;;;8.57;100.00;99922.56;5094495;28;20449;-50
2024/03/05 05:16:45;;;;;;;0.30;0.20;;;;;;;8.59;100.00;99929.56;5094517;28;20457;-50
2024/03/05 05:19:14;;;;;;;0.30;0.20;;;;;;;8.59;100.00;99920.75;5094827;28;20452;-50
2024/03/05 05:21:43;;;;;;;0.30;0.20;;;;;;;8.57;100.00;99920.78;5091951;28;20468;-49
2024/03/05 05:24:10;;;;;;;0.30;0.20;;;;;;;8.55;100.00;99930.56;5094168;28;20544;-50
2024/03/05 05:26:36;;;;;;;0.30;0.20;;;;;;;8.65;100.00;99922.38;5094100;28;20485;-50
2024/03/05 05:29:03;;;;;;;0.30;0.20;;;;;;;8.96;100.00;99930.34;5094188;28;21032;-50
2024/03/05 05:31:29;;;;;;;0.30;0.20;;;;;;;8.80;100.00;99929.91;5094091;28;20449;-49
2024/03/05 05:33:56;;;;;;;0.30;0.20;;;;;;;8.77;100.00;99928.22;5094082;28;20453;-49
2024/03/05 05:36:22;;;;;;;0.30;0.20;;;;;;;8.81;100.00;99929.88;5066995;28;20541;-49
2024/03/05 05:38:50;;;;;;;0.30;0.20;;;;;;;8.76;100.00;99923.81;5084951;28;20472;-50
2024/03/05 05:41:21;;;;;;;0.30;0.20;;;;;;;8.73;100.00;99925.66;5089050;28;20514;-49
2024/03/05 05:43:48;;;;;;;0.30;0.10;;;;;;;8.64;100.00;99925.94;5086041;28;20498;-50
2024/03/05 05:46:15;;;;;;;0.30;0.20;;;;;;;8.73;100.00;99921.25;5093594;28;21167;-49
2024/03/05 05:48:43;;;;;;;0.30;0.20;;;;;;;8.74;100.00;99925.63;5093714;28;21036;-50
2024/03/05 05:51:10;;;;;;;0.30;0.20;;;;;;;8.87;100.00;99919.09;5093503;28;20489;-49
2024/03/05 05:53:37;;;;;;;0.30;0.30;;;;;;;8.81;100.00;99921.03;5077163;28;20894;-50
2024/03/05 05:56:05;;;;;;;0.30;0.20;;;;;;;8.45;100.00;99926.41;5093548;28;20531;-49
2024/03/05 05:58:33;;;;;;;0.30;0.20;;;;;;;8.53;100.00;99923.56;5093462;28;20477;-49
2024/03/05 06:01:04;;;;;;;0.30;0.20;;;;;;;8.70;100.00;99928.41;5093302;28;20507;-49
2024/03/05 06:03:30;;;;;;;0.30;0.20;;;;;;;8.85;100.00;99931.50;5093471;28;20540;-49
2024/03/05 06:05:57;;;;;;;0.30;0.20;;;;;;;8.96;100.00;99928.56;5092933;28;20480;-49
2024/03/05 06:08:25;;;;;;;0.30;0.20;;;;;;;9.05;100.00;99930.97;5093170;28;20838;-50
2024/03/05 06:10:52;;;;;;;0.30;0.20;;;;;;;9.12;100.00;99937.81;5093274;28;20445;-49
2024/03/05 06:13:20;;;;;;;0.30;0.20;;;;;;;8.96;100.00;99931.22;5093269;28;20480;-50
2024/03/05 06:15:48;;;;;;;0.30;0.20;;;;;;;9.06;100.00;99939.78;5092981;28;20953;-49
2024/03/05 06:18:15;;;;;;;0.30;0.20;;;;;;;8.93;100.00;99949.88;5093090;28;20600;-49
2024/03/05 06:20:43;;;;;;;0.30;0.20;;;;;;;8.94;100.00;99943.66;5092843;28;20453;-49
2024/03/05 06:23:11;;;;;;;0.30;0.20;;;;;;;8.81;100.00;99942.25;5089235;28;20510;-49
2024/03/05 06:25:39;;;;;;;0.30;0.20;;;;;;;8.82;100.00;99934.25;5092829;28;20993;-50
2024/03/05 06:28:09;;;;;;;0.30;0.20;;;;;;;8.90;100.00;99947.28;5093150;28;20544;-49
2024/03/05 06:30:36;;;;;;;1.33;1.33;;;;;;;8.98;100.00;99942.66;5079822;28;20462;-50
2024/03/05 06:33:06;;;;;;;0.30;0.20;;;;;;;8.89;100.00;99953.50;5078217;28;20937;-50
2024/03/05 06:35:32;;;;;;;0.30;0.20;;;;;;;8.69;100.00;99947.88;5077140;28;20439;-49
2024/03/05 06:38:00;;;;;;;0.30;0.20;;;;;;;8.72;100.00;99953.94;5080362;28;20475;-49
2024/03/05 06:40:28;;;;;;;0.30;0.20;;;;;;;8.57;100.00;99952.56;5080905;28;20926;-50
2024/03/05 06:43:03;;;;;;;0.30;0.20;;;;;;;8.56;100.00;99948.19;5084800;28;20462;-50
2024/03/05 06:45:33;;;;;;;0.30;0.20;;;;;;;8.49;100.00;99949.25;5092586;28;20848;-49
2024/03/05 06:48:01;;;;;;;0.30;0.20;;;;;;;8.59;100.00;99944.59;5058383;28;20558;-49
2024/03/05 06:51:16;;;;;;;0.30;0.20;;;;;;;8.67;100.00;99941.75;5074492;28;20801;-49
2024/03/05 06:58:53;;;;;;;2.20;2.10;;;;;;;8.56;100.00;99956.13;5092844;28;20458;-49
2024/03/05 07:01:20;;;;;;;0.30;0.20;;;;;;;8.53;100.00;99950.06;5092451;28;20441;-50
2024/03/05 07:03:48;;;;;;;0.30;0.20;;;;;;;8.72;100.00;99950.44;5092437;28;20457;-49
2024/03/05 07:06:15;;;;;;;0.30;0.20;;;;;;;8.86;100.00;99949.16;5092229;28;20488;-50
2024/03/05 07:08:44;;;;;;;0.30;0.20;;;;;;;9.01;100.00;99944.34;5092320;28;20552;-50
2024/03/05 07:11:12;;;;;;;0.30;0.17;;;;;;;9.13;100.00;99949.31;5092484;28;20460;-49
2024/03/05 07:13:47;;;;;;;0.30;0.20;;;;;;;8.94;100.00;99954.25;5092155;28;20480;-49
2024/03/05 07:16:15;;;;;;;0.30;0.20;;;;;;;9.09;100.00;99955.63;5091800;28;20437;-50
2024/03/05 07:18:47;;;;;;;0.30;0.20;;;;;;;9.11;100.00;99951.13;5091964;28;20977;-50
2024/03/05 07:21:17;;;;;;;0.30;0.20;;;;;;;9.20;100.00;99950.88;5092428;28;20441;-50
2024/03/05 07:23:46;;;;;;;0.30;0.10;;;;;;;9.09;100.00;99956.47;5089259;28;20506;-50
2024/03/05 07:26:15;;;;;;;0.30;0.20;;;;;;;9.31;100.00;99954.06;5092245;28;20957;-50
2024/03/05 07:28:42;;;;;;;0.30;0.17;;;;;;;9.34;100.00;99961.97;5092064;28;20469;-50
2024/03/05 07:31:10;;;;;;;0.30;0.20;;;;;;;9.38;100.00;99958.31;5092254;28;20449;-51
2024/03/05 07:33:38;;;;;;;0.30;0.20;;;;;;;9.46;100.00;99958.09;5091894;28;20449;-50
2024/03/05 07:36:06;;;;;;;0.30;0.20;;;;;;;9.59;100.00;99966.53;5067605;28;20514;-50
2024/03/05 07:38:35;;;;;;;0.30;0.20;;;;;;;9.62;100.00;99967.31;5083937;28;20554;-50
2024/03/05 07:41:02;;;;;;;0.30;0.20;;;;;;;9.71;100.00;99972.34;5085004;28;20476;-50
2024/03/05 07:43:43;;;;;;;0.30;0.20;;;;;;;9.74;100.00;99971.41;5083737;28;20852;-50
2024/03/05 07:46:10;;;;;;;0.30;0.20;;;;;;;9.69;100.00;99973.31;5091744;28;20485;-50
2024/03/05 07:48:36;;;;;;;0.30;0.20;;;;;;;9.70;100.00;99969.72;5092213;28;20464;-51
2024/03/05 07:51:03;;;;;;;0.30;0.20;;;;;;;9.74;100.00;99976.72;5091751;28;20823;-50
2024/03/05 07:53:30;;;;;;;0.30;0.20;;;;;;;9.72;100.00;99978.50;5076405;28;20455;-50
2024/03/05 07:55:57;;;;;;;0.30;0.20;;;;;;;9.76;100.00;99975.75;5091706;28;20972;-50
2024/03/05 07:58:24;;;;;;;0.30;0.20;;;;;;;9.82;100.00;99985.28;5091740;28;20477;-50
2024/03/05 08:00:50;;;;;;;0.30;0.20;;;;;;;9.85;100.00;99982.53;5091662;28;20448;-49
2024/03/05 08:03:17;;;;;;;0.30;0.20;;;;;;;9.83;100.00;99994.13;5091962;28;20440;-50
2024/03/05 08:05:44;;;;;;;0.30;0.20;;;;;;;9.85;100.00;99985.19;5091681;28;20492;-50
2024/03/05 08:08:11;;;;;;;0.30;0.20;;;;;;;9.83;100.00;99992.34;5091820;28;20469;-50
2024/03/05 08:10:37;;;;;;;0.30;0.20;;;;;;;9.89;100.00;99988.66;5091598;28;20455;-50
2024/03/05 08:13:04;;;;;;;0.30;0.20;;;;;;;10.00;100.00;99989.16;5091833;28;20472;-50
2024/03/05 08:15:30;;;;;;;0.30;0.20;;;;;;;10.00;100.00;99986.50;5091832;28;20472;-50
2024/03/05 08:17:58;;;;;;;0.30;0.20;;;;;;;10.08;100.00;99981.84;5091670;28;20475;-50
2024/03/05 08:20:26;;;;;;;0.30;0.20;;;;;;;10.06;100.00;99983.66;5091635;28;20453;-50
2024/03/05 08:22:54;;;;;;;0.30;0.20;;;;;;;10.12;100.00;99985.25;5089169;28;20459;-50
2024/03/05 08:25:22;;;;;;;0.30;0.20;;;;;;;10.17;100.00;99983.34;5091385;28;20536;-50
2024/03/05 08:27:59;;;;;;;0.30;0.20;;;;;;;10.15;100.00;99985.19;5091942;28;20465;-50
2024/03/05 08:30:29;;;;;;;0.30;0.20;;;;;;;10.16;99.99;99989.56;5095261;28;20540;-50
2024/03/05 08:32:57;;;;;;;0.30;0.20;;;;;;;10.24;99.89;99993.72;5095231;28;20456;-50
2024/03/05 08:35:25;;;;;;;0.30;0.20;;;;;;;10.64;99.13;99989.78;5080527;28;20447;-50
2024/03/05 08:37:52;;;;;;;0.30;0.20;;;;;;;10.50;98.49;100000.00;5081763;28;20477;-50
2024/03/05 08:40:20;;;;;;;0.30;0.20;;;;;;;10.44;98.56;99995.75;5082119;28;20883;-50
2024/03/05 08:42:55;;;;;;;0.30;0.20;;;;;;;10.41;99.00;99997.63;5087034;28;20464;-50
2024/03/05 08:45:24;;;;;;;0.30;0.20;;;;;;;10.42;98.99;100002.91;5094860;28;20997;-50
2024/03/05 08:47:53;;;;;;;0.30;0.20;;;;;;;10.36;99.35;99997.78;5094753;28;20470;-50
2024/03/05 08:50:21;;;;;;;0.30;0.20;;;;;;;10.37;99.64;100004.84;5094934;28;20453;-50
2024/03/05 08:52:48;;;;;;;0.30;0.20;;;;;;;10.32;99.66;100001.47;5079934;28;20448;-50
2024/03/05 08:55:17;;;;;;;0.60;0.60;;;;;;;10.34;100.00;100011.13;5074068;28;20525;-50
2024/03/05 08:57:44;;;;;;;0.40;0.30;;;;;;;10.34;99.72;100002.28;5089474;28;20481;-50
2024/03/05 09:00:17;;;;;;;0.30;0.20;;;;;;;10.43;99.81;100012.63;5094917;28;20455;-50
2024/03/05 09:03:03;;;;;;;0.30;0.20;;;;;;;10.42;99.85;100002.06;5094514;28;20884;-50
2024/03/05 09:05:31;;;;;;;0.30;0.20;;;;;;;10.38;99.99;100006.56;5094492;28;20533;-50
2024/03/05 09:07:58;;;;;;;0.30;0.20;;;;;;;10.48;99.44;100007.16;5094496;28;21018;-50
2024/03/05 09:10:24;;;;;;;0.30;0.20;;;;;;;10.61;98.40;100006.69;5094302;28;20942;-50
2024/03/05 09:12:51;;;;;;;0.30;0.20;;;;;;;10.70;98.40;100010.84;5094555;28;20448;-50
2024/03/05 09:15:17;;;;;;;0.30;0.20;;;;;;;10.55;99.13;100011.34;5094207;28;20455;-50
2024/03/05 09:17:44;;;;;;;0.30;0.20;;;;;;;10.67;99.23;100013.59;5094224;28;20981;-50
2024/03/05 09:20:14;;;;;;;2.03;1.93;;;;;;;10.76;98.68;100012.41;5067344;28;20451;-50
2024/03/05 09:22:44;;;;;;;0.30;0.20;;;;;;;10.66;98.89;100014.50;5091391;28;20449;-50
2024/03/05 09:25:13;;;;;;;0.30;0.20;;;;;;;10.70;99.31;100016.16;5094146;28;20453;-50
2024/03/05 09:27:44;;;;;;;0.30;0.20;;;;;;;10.84;99.20;100015.69;5093959;28;20563;-49
2024/03/05 09:30:18;;;;;;;0.30;0.20;;;;;;;10.81;99.54;100010.47;5093900;28;20448;-50
2024/03/05 09:32:46;;;;;;;0.30;0.20;;;;;;;10.83;98.95;100017.50;5094311;28;20468;-50
2024/03/05 09:35:12;;;;;;;0.40;0.20;;;;;;;10.85;99.72;100023.63;5083697;28;20451;-50
2024/03/05 09:37:41;;;;;;;0.30;0.20;;;;;;;11.00;99.38;100016.03;5078670;28;20469;-50
2024/03/05 09:40:16;;;;;;;0.30;0.30;;;;;;;10.95;98.38;100016.19;5079325;28;20449;-50
2024/03/05 09:42:44;;;;;;;0.30;0.20;;;;;;;10.99;98.37;100020.50;5085518;28;20891;-50
2024/03/05 09:45:17;;;;;;;0.30;0.20;;;;;;;10.84;99.23;100019.22;5093998;28;20551;-51
2024/03/05 09:47:47;;;;;;;0.30;0.20;;;;;;;10.92;99.15;100027.78;5093610;28;20518;-50
2024/03/05 09:50:16;;;;;;;0.30;0.20;;;;;;;10.94;99.36;100027.75;5093780;28;20441;-50
2024/03/05 09:52:44;;;;;;;0.30;0.20;;;;;;;10.90;98.85;100031.44;5077900;28;20458;-50
2024/03/05 09:55:12;;;;;;;0.30;0.20;;;;;;;11.02;98.51;100033.69;5093455;28;20854;-50
2024/03/05 09:57:40;;;;;;;0.30;0.20;;;;;;;10.93;97.88;100032.19;5094091;28;20571;-48
2024/03/05 10:00:10;;;;;;;0.30;0.20;;;;;;;10.97;99.53;100028.53;5093628;28;20449;-48
2024/03/05 10:02:38;;;;;;;0.30;0.20;;;;;;;10.95;98.10;100034.78;5093654;28;20445;-48
2024/03/05 10:05:09;;;;;;;0.30;0.20;;;;;;;11.03;99.05;100034.53;5093379;28;20453;-49
2024/03/05 10:07:36;;;;;;;0.30;0.20;;;;;;;10.99;98.03;100039.09;5092962;28;20562;-47
2024/03/05 10:10:11;;;;;;;0.30;0.20;;;;;;;10.95;98.63;100038.31;5093512;28;20456;-48
2024/03/05 10:12:39;;;;;;;0.30;0.20;;;;;;;10.93;99.51;100042.81;5093448;28;20455;-47
2024/03/05 10:15:21;;;;;;;0.30;0.20;;;;;;;11.13;98.30;100046.63;5093340;28;20452;-48
2024/03/05 10:17:52;;;;;;;0.30;0.20;;;;;;;11.03;98.30;100045.19;5093257;28;20465;-47
2024/03/05 10:20:26;;;;;;;0.30;0.20;;;;;;;10.90;98.68;100034.97;5093302;28;20447;-48
2024/03/05 10:22:57;;;;;;;0.30;0.20;;;;;;;11.03;98.71;100045.19;5090377;28;20445;-47
2024/03/05 10:25:26;;;;;;;0.30;0.20;;;;;;;11.19;97.47;100041.06;5093087;28;20452;-48
2024/03/05 10:27:54;;;;;;;0.40;0.37;;;;;;;11.24;97.98;100047.97;5092936;28;20493;-47
2024/03/05 10:30:25;;;;;;;0.30;0.20;;;;;;;11.16;97.41;100046.50;5092738;28;20536;-48
2024/03/05 10:32:56;;;;;;;0.30;0.20;;;;;;;11.19;97.62;100044.59;5093245;28;20437;-48
2024/03/05 10:35:23;;;;;;;0.30;0.20;;;;;;;11.14;95.93;100045.69;5079753;28;20459;-48
2024/03/05 10:38:03;;;;;;;0.30;0.20;;;;;;;11.24;96.73;100052.44;5078875;28;20927;-48
2024/03/05 10:40:32;;;;;;;0.30;0.20;;;;;;;11.31;96.36;100047.75;5069368;28;20444;-48
2024/03/05 10:43:06;;;;;;;0.30;0.20;;;;;;;10.85;97.12;100052.00;5084023;28;20458;-47
2024/03/05 10:45:35;;;;;;;0.30;0.20;;;;;;;10.69;97.84;100049.00;5092928;28;20445;-47
2024/03/05 10:48:03;;;;;;;0.30;0.20;;;;;;;10.79;97.76;100042.41;5092459;28;20538;-48
2024/03/05 10:50:33;;;;;;;0.30;0.20;;;;;;;11.08;96.63;100048.53;5092437;28;20435;-47
2024/03/05 10:53:01;;;;;;;0.40;0.33;;;;;;;10.84;95.77;100058.25;5076921;28;20813;-47
2024/03/05 10:55:28;;;;;;;0.30;0.20;;;;;;;10.79;95.62;100054.84;5092661;28;20509;-48
2024/03/05 11:00:42;;;;;;;0.30;0.20;;;;;;;10.97;93.90;100059.56;5092626;28;20446;-48
2024/03/05 11:03:10;;;;;;;0.30;0.20;;;;;;;10.86;93.90;100061.72;5092650;28;20441;-47
2024/03/05 11:05:48;;;;;;;0.40;0.20;;;;;;;10.96;94.38;100063.13;5092398;28;20524;-47
2024/03/05 11:08:18;;;;;;;0.30;0.20;;;;;;;10.95;94.27;100059.59;5092699;28;20967;-46
2024/03/05 11:11:02;;;;;;;0.30;0.20;;;;;;;11.01;93.41;100057.66;5092569;28;20459;-47
2024/03/05 11:13:32;;;;;;;0.40;0.20;;;;;;;11.12;93.66;100059.03;5092637;28;20498;-47
2024/03/05 11:16:03;;;;;;;0.30;0.20;;;;;;;11.08;93.07;100056.53;5066070;28;20935;-47
2024/03/05 11:18:31;;;;;;;0.40;0.20;;;;;;;11.17;92.38;100058.88;5092099;28;20509;-47
2024/03/05 11:21:06;;;;;;;0.30;0.20;;;;;;;11.18;91.17;100058.81;5092600;28;20524;-47
2024/03/05 11:23:35;;;;;;;0.30;0.20;;;;;;;11.01;90.24;100057.66;5089952;28;20445;-47
2024/03/05 11:26:04;;;;;;;0.30;0.20;;;;;;;11.10;89.23;100052.91;5092179;28;20820;-48
2024/03/05 11:28:31;;;;;;;0.30;0.20;;;;;;;11.51;90.52;100055.88;5092091;28;20444;-47
2024/03/05 11:31:16;;;;;;;0.30;0.20;;;;;;;11.45;89.58;100067.63;5092278;28;20532;-47
2024/03/05 11:34:02;;;;;;;0.30;0.20;;;;;;;11.50;88.96;100060.31;5092528;28;20524;-48
2024/03/05 11:36:35;;;;;;;0.30;0.20;;;;;;;11.32;89.25;100071.63;5065066;28;20473;-47
2024/03/05 11:39:17;;;;;;;0.30;0.20;;;;;;;11.38;88.06;100065.25;5081669;28;20445;-48
2024/03/05 11:41:45;;;;;;;0.30;0.20;;;;;;;11.18;86.39;100068.59;5091895;28;20452;-48
2024/03/05 11:44:41;;;;;;;0.30;0.20;;;;;;;11.23;86.27;100066.63;5085090;28;20452;-47
2024/03/05 11:47:08;;;;;;;0.30;0.20;;;;;;;11.34;87.33;100063.59;5092051;28;20499;-47